sensor_id;sensor_type;location;lat;lon;timestamp;P1;durP1;ratioP1;P2;durP2;ratioP2
23634;SDS011;11994;51.038;16.974;2023-01-01T00:00:12;5.15;;;3.87;;
23634;SDS011;11994;51.038;16.974;2023-01-01T00:02:38;5.25;;;3.87;;
23634;SDS011;11994;51.038;16.974;2023-01-01T00:05:04;7.70;;;4.75;;
23634;SDS011;11994;51.038;16.974;2023-01-01T00:07:32;5.05;;;3.30;;
23634;SDS011;11994;51.038;16.974;2023-01-01T00:09:58;4.90;;;3.10;;
23634;SDS011;11994;51.038;16.974;2023-01-01T00:12:42;4.42;;;2.80;;
23634;SDS011;11994;51.038;16.974;2023-01-01T00:15:07;5.45;;;3.20;;
23634;SDS011;11994;51.038;16.974;2023-01-01T00:17:33;5.85;;;3.30;;
23634;SDS011;11994;51.038;16.974;2023-01-01T00:19:59;4.45;;;2.60;;
23634;SDS011;11994;51.038;16.974;2023-01-01T00:22:25;5.22;;;2.65;;
23634;SDS011;11994;51.038;16.974;2023-01-01T00:24:51;5.67;;;3.17;;
23634;SDS011;11994;51.038;16.974;2023-01-01T00:27:17;4.55;;;2.95;;
23634;SDS011;11994;51.038;16.974;2023-01-01T00:29:43;5.78;;;3.85;;
23634;SDS011;11994;51.038;16.974;2023-01-01T00:32:09;6.00;;;3.30;;
23634;SDS011;11994;51.038;16.974;2023-01-01T00:34:36;6.00;;;3.20;;
23634;SDS011;11994;51.038;16.974;2023-01-01T00:37:02;5.05;;;3.45;;
23634;SDS011;11994;51.038;16.974;2023-01-01T00:39:28;4.78;;;3.25;;
23634;SDS011;11994;51.038;16.974;2023-01-01T00:41:54;4.50;;;2.90;;
23634;SDS011;11994;51.038;16.974;2023-01-01T00:44:20;5.80;;;3.47;;
23634;SDS011;11994;51.038;16.974;2023-01-01T00:46:46;5.62;;;3.33;;
23634;SDS011;11994;51.038;16.974;2023-01-01T00:49:12;6.58;;;3.42;;
23634;SDS011;11994;51.038;16.974;2023-01-01T00:51:38;6.72;;;3.70;;
23634;SDS011;11994;51.038;16.974;2023-01-01T00:54:03;6.25;;;3.77;;
23634;SDS011;11994;51.038;16.974;2023-01-01T00:56:29;5.65;;;3.47;;
23634;SDS011;11994;51.038;16.974;2023-01-01T00:58:55;5.53;;;3.60;;
23634;SDS011;11994;51.038;16.974;2023-01-01T01:01:21;8.00;;;4.45;;
23634;SDS011;11994;51.038;16.974;2023-01-01T01:03:47;8.83;;;4.78;;
23634;SDS011;11994;51.038;16.974;2023-01-01T01:06:14;8.60;;;5.00;;
23634;SDS011;11994;51.038;16.974;2023-01-01T01:08:42;5.47;;;3.60;;
23634;SDS011;11994;51.038;16.974;2023-01-01T01:11:13;5.60;;;3.70;;
23634;SDS011;11994;51.038;16.974;2023-01-01T01:13:42;5.80;;;3.12;;
23634;SDS011;11994;51.038;16.974;2023-01-01T01:16:15;6.65;;;3.47;;
23634;SDS011;11994;51.038;16.974;2023-01-01T01:18:50;5.55;;;3.00;;
23634;SDS011;11994;51.038;16.974;2023-01-01T01:21:19;8.00;;;3.27;;
23634;SDS011;11994;51.038;16.974;2023-01-01T01:23:47;5.85;;;3.42;;
23634;SDS011;11994;51.038;16.974;2023-01-01T01:28:50;7.17;;;3.70;;
23634;SDS011;11994;51.038;16.974;2023-01-01T01:31:17;5.50;;;3.47;;
23634;SDS011;11994;51.038;16.974;2023-01-01T01:33:45;7.20;;;3.75;;
23634;SDS011;11994;51.038;16.974;2023-01-01T01:36:13;4.42;;;3.08;;
23634;SDS011;11994;51.038;16.974;2023-01-01T01:38:41;8.78;;;3.77;;
23634;SDS011;11994;51.038;16.974;2023-01-01T01:41:07;6.05;;;3.37;;
23634;SDS011;11994;51.038;16.974;2023-01-01T01:46:05;5.35;;;3.25;;
23634;SDS011;11994;51.038;16.974;2023-01-01T01:48:43;5.42;;;3.72;;
23634;SDS011;11994;51.038;16.974;2023-01-01T01:51:13;6.35;;;4.15;;
23634;SDS011;11994;51.038;16.974;2023-01-01T01:56:14;7.55;;;3.80;;
23634;SDS011;11994;51.038;16.974;2023-01-01T01:58:44;5.87;;;3.87;;
23634;SDS011;11994;51.038;16.974;2023-01-01T02:01:10;8.38;;;5.50;;
23634;SDS011;11994;51.038;16.974;2023-01-01T02:03:38;7.40;;;4.87;;
23634;SDS011;11994;51.038;16.974;2023-01-01T02:06:10;6.28;;;3.98;;
23634;SDS011;11994;51.038;16.974;2023-01-01T02:08:36;6.03;;;3.42;;
23634;SDS011;11994;51.038;16.974;2023-01-01T02:11:03;4.78;;;3.10;;
23634;SDS011;11994;51.038;16.974;2023-01-01T02:13:29;8.05;;;4.60;;
23634;SDS011;11994;51.038;16.974;2023-01-01T02:18:38;5.58;;;4.00;;
23634;SDS011;11994;51.038;16.974;2023-01-01T02:21:14;4.75;;;3.20;;
23634;SDS011;11994;51.038;16.974;2023-01-01T02:23:50;5.58;;;3.30;;
23634;SDS011;11994;51.038;16.974;2023-01-01T02:32:07;5.67;;;2.52;;
23634;SDS011;11994;51.038;16.974;2023-01-01T02:37:06;7.30;;;2.60;;
23634;SDS011;11994;51.038;16.974;2023-01-01T02:39:36;3.75;;;2.30;;
23634;SDS011;11994;51.038;16.974;2023-01-01T02:42:06;4.05;;;2.20;;
23634;SDS011;11994;51.038;16.974;2023-01-01T02:44:37;4.62;;;2.55;;
23634;SDS011;11994;51.038;16.974;2023-01-01T02:47:10;3.90;;;2.50;;
23634;SDS011;11994;51.038;16.974;2023-01-01T02:49:47;4.20;;;2.40;;
23634;SDS011;11994;51.038;16.974;2023-01-01T02:53:05;5.62;;;2.30;;
23634;SDS011;11994;51.038;16.974;2023-01-01T02:55:04;4.83;;;2.65;;
23634;SDS011;11994;51.038;16.974;2023-01-01T03:00:03;4.70;;;2.80;;
23634;SDS011;11994;51.038;16.974;2023-01-01T03:09:02;4.50;;;2.60;;
23634;SDS011;11994;51.038;16.974;2023-01-01T03:11:50;3.55;;;2.45;;
23634;SDS011;11994;51.038;16.974;2023-01-01T03:20:00;4.85;;;3.15;;
23634;SDS011;11994;51.038;16.974;2023-01-01T03:22:42;6.92;;;3.30;;
23634;SDS011;11994;51.038;16.974;2023-01-01T03:25:13;3.62;;;2.45;;
23634;SDS011;11994;51.038;16.974;2023-01-01T03:27:46;6.33;;;2.98;;
23634;SDS011;11994;51.038;16.974;2023-01-01T03:30:17;7.50;;;3.40;;
23634;SDS011;11994;51.038;16.974;2023-01-01T03:32:51;3.55;;;2.83;;
23634;SDS011;11994;51.038;16.974;2023-01-01T03:35:25;4.00;;;2.50;;
23634;SDS011;11994;51.038;16.974;2023-01-01T03:38:18;4.45;;;2.60;;
23634;SDS011;11994;51.038;16.974;2023-01-01T03:40:52;4.67;;;2.70;;
23634;SDS011;11994;51.038;16.974;2023-01-01T03:43:39;6.42;;;2.98;;
23634;SDS011;11994;51.038;16.974;2023-01-01T03:46:20;3.65;;;2.60;;
23634;SDS011;11994;51.038;16.974;2023-01-01T03:48:49;5.90;;;2.60;;
23634;SDS011;11994;51.038;16.974;2023-01-01T03:54:16;6.22;;;2.47;;
23634;SDS011;11994;51.038;16.974;2023-01-01T03:56:56;5.80;;;2.70;;
23634;SDS011;11994;51.038;16.974;2023-01-01T04:05:30;3.98;;;2.58;;
23634;SDS011;11994;51.038;16.974;2023-01-01T04:08:03;4.65;;;2.90;;
23634;SDS011;11994;51.038;16.974;2023-01-01T04:10:31;4.67;;;3.00;;
23634;SDS011;11994;51.038;16.974;2023-01-01T04:15:29;4.20;;;2.83;;
23634;SDS011;11994;51.038;16.974;2023-01-01T04:17:56;4.25;;;2.45;;
23634;SDS011;11994;51.038;16.974;2023-01-01T04:20:22;3.80;;;2.50;;
23634;SDS011;11994;51.038;16.974;2023-01-01T04:22:49;3.60;;;2.55;;
23634;SDS011;11994;51.038;16.974;2023-01-01T04:25:15;6.08;;;2.80;;
23634;SDS011;11994;51.038;16.974;2023-01-01T04:27:41;3.42;;;2.30;;
23634;SDS011;11994;51.038;16.974;2023-01-01T04:30:09;5.65;;;2.75;;
23634;SDS011;11994;51.038;16.974;2023-01-01T04:32:38;4.00;;;2.40;;
23634;SDS011;11994;51.038;16.974;2023-01-01T04:35:04;4.62;;;2.52;;
23634;SDS011;11994;51.038;16.974;2023-01-01T04:37:34;4.97;;;2.75;;
23634;SDS011;11994;51.038;16.974;2023-01-01T04:40:00;3.72;;;2.40;;
23634;SDS011;11994;51.038;16.974;2023-01-01T04:42:27;3.65;;;2.42;;
23634;SDS011;11994;51.038;16.974;2023-01-01T04:44:53;4.25;;;2.30;;
23634;SDS011;11994;51.038;16.974;2023-01-01T04:47:18;3.37;;;2.35;;
23634;SDS011;11994;51.038;16.974;2023-01-01T04:49:44;4.28;;;2.30;;
23634;SDS011;11994;51.038;16.974;2023-01-01T04:52:10;4.33;;;2.65;;
23634;SDS011;11994;51.038;16.974;2023-01-01T04:54:36;5.45;;;2.58;;
23634;SDS011;11994;51.038;16.974;2023-01-01T04:57:02;4.00;;;2.70;;
23634;SDS011;11994;51.038;16.974;2023-01-01T04:59:28;6.65;;;2.85;;
23634;SDS011;11994;51.038;16.974;2023-01-01T05:01:55;4.35;;;2.75;;
23634;SDS011;11994;51.038;16.974;2023-01-01T05:04:21;5.22;;;2.67;;
23634;SDS011;11994;51.038;16.974;2023-01-01T05:06:47;4.95;;;2.87;;
23634;SDS011;11994;51.038;16.974;2023-01-01T05:09:13;5.55;;;2.95;;
23634;SDS011;11994;51.038;16.974;2023-01-01T05:11:39;4.92;;;2.77;;
23634;SDS011;11994;51.038;16.974;2023-01-01T05:14:06;5.10;;;2.80;;
23634;SDS011;11994;51.038;16.974;2023-01-01T05:16:37;4.17;;;2.83;;
23634;SDS011;11994;51.038;16.974;2023-01-01T05:19:03;4.45;;;2.90;;
23634;SDS011;11994;51.038;16.974;2023-01-01T05:21:31;5.62;;;2.83;;
23634;SDS011;11994;51.038;16.974;2023-01-01T05:24:01;4.85;;;2.92;;
23634;SDS011;11994;51.038;16.974;2023-01-01T05:26:32;4.77;;;2.83;;
23634;SDS011;11994;51.038;16.974;2023-01-01T05:29:01;5.37;;;3.02;;
23634;SDS011;11994;51.038;16.974;2023-01-01T05:31:29;6.03;;;2.70;;
23634;SDS011;11994;51.038;16.974;2023-01-01T05:33:57;4.50;;;2.95;;
23634;SDS011;11994;51.038;16.974;2023-01-01T05:36:28;4.35;;;2.90;;
23634;SDS011;11994;51.038;16.974;2023-01-01T05:39:01;4.83;;;3.05;;
23634;SDS011;11994;51.038;16.974;2023-01-01T05:41:27;4.50;;;3.00;;
23634;SDS011;11994;51.038;16.974;2023-01-01T05:43:55;4.78;;;3.17;;
23634;SDS011;11994;51.038;16.974;2023-01-01T05:46:22;4.70;;;2.90;;
23634;SDS011;11994;51.038;16.974;2023-01-01T05:48:49;5.00;;;3.33;;
23634;SDS011;11994;51.038;16.974;2023-01-01T05:51:18;6.30;;;3.35;;
23634;SDS011;11994;51.038;16.974;2023-01-01T05:53:47;5.95;;;2.72;;
23634;SDS011;11994;51.038;16.974;2023-01-01T05:56:13;4.62;;;3.00;;
23634;SDS011;11994;51.038;16.974;2023-01-01T05:58:41;5.80;;;3.17;;
23634;SDS011;11994;51.038;16.974;2023-01-01T06:01:29;6.15;;;4.12;;
23634;SDS011;11994;51.038;16.974;2023-01-01T06:03:41;6.72;;;4.53;;
23634;SDS011;11994;51.038;16.974;2023-01-01T06:06:13;5.00;;;3.67;;
23634;SDS011;11994;51.038;16.974;2023-01-01T06:08:39;4.90;;;3.27;;
23634;SDS011;11994;51.038;16.974;2023-01-01T06:11:07;5.47;;;3.33;;
23634;SDS011;11994;51.038;16.974;2023-01-01T06:13:36;5.42;;;3.00;;
23634;SDS011;11994;51.038;16.974;2023-01-01T06:16:04;5.65;;;3.02;;
23634;SDS011;11994;51.038;16.974;2023-01-01T06:18:32;4.85;;;3.10;;
23634;SDS011;11994;51.038;16.974;2023-01-01T06:21:06;4.72;;;3.08;;
23634;SDS011;11994;51.038;16.974;2023-01-01T06:23:35;5.25;;;2.83;;
23634;SDS011;11994;51.038;16.974;2023-01-01T06:26:06;5.85;;;3.60;;
23634;SDS011;11994;51.038;16.974;2023-01-01T06:28:40;4.95;;;2.67;;
23634;SDS011;11994;51.038;16.974;2023-01-01T06:31:08;5.95;;;3.27;;
23634;SDS011;11994;51.038;16.974;2023-01-01T06:33:36;4.47;;;3.20;;
23634;SDS011;11994;51.038;16.974;2023-01-01T06:36:04;5.03;;;2.62;;
23634;SDS011;11994;51.038;16.974;2023-01-01T06:38:35;7.05;;;3.25;;
23634;SDS011;11994;51.038;16.974;2023-01-01T06:41:04;4.72;;;3.10;;
23634;SDS011;11994;51.038;16.974;2023-01-01T06:43:34;4.15;;;2.70;;
23634;SDS011;11994;51.038;16.974;2023-01-01T06:48:46;7.53;;;2.85;;
23634;SDS011;11994;51.038;16.974;2023-01-01T06:51:20;5.55;;;3.10;;
23634;SDS011;11994;51.038;16.974;2023-01-01T06:53:45;4.30;;;2.90;;
23634;SDS011;11994;51.038;16.974;2023-01-01T06:56:12;4.40;;;2.77;;
23634;SDS011;11994;51.038;16.974;2023-01-01T06:58:39;4.22;;;2.62;;
23634;SDS011;11994;51.038;16.974;2023-01-01T07:01:09;5.67;;;3.10;;
23634;SDS011;11994;51.038;16.974;2023-01-01T07:03:38;4.10;;;2.85;;
23634;SDS011;11994;51.038;16.974;2023-01-01T07:06:05;5.70;;;2.87;;
23634;SDS011;11994;51.038;16.974;2023-01-01T07:08:32;5.05;;;3.08;;
23634;SDS011;11994;51.038;16.974;2023-01-01T07:10:59;4.05;;;2.60;;
23634;SDS011;11994;51.038;16.974;2023-01-01T07:13:27;4.58;;;2.60;;
23634;SDS011;11994;51.038;16.974;2023-01-01T07:15:54;3.80;;;2.55;;
23634;SDS011;11994;51.038;16.974;2023-01-01T07:18:21;4.35;;;2.60;;
23634;SDS011;11994;51.038;16.974;2023-01-01T07:20:52;4.35;;;2.70;;
23634;SDS011;11994;51.038;16.974;2023-01-01T07:23:24;5.35;;;2.90;;
23634;SDS011;11994;51.038;16.974;2023-01-01T07:25:53;4.28;;;2.58;;
23634;SDS011;11994;51.038;16.974;2023-01-01T07:28:20;4.85;;;2.72;;
23634;SDS011;11994;51.038;16.974;2023-01-01T07:30:48;3.67;;;2.42;;
23634;SDS011;11994;51.038;16.974;2023-01-01T07:33:16;4.45;;;2.60;;
23634;SDS011;11994;51.038;16.974;2023-01-01T07:35:44;3.70;;;2.70;;
23634;SDS011;11994;51.038;16.974;2023-01-01T07:38:11;4.53;;;2.90;;
23634;SDS011;11994;51.038;16.974;2023-01-01T07:40:38;5.37;;;2.62;;
23634;SDS011;11994;51.038;16.974;2023-01-01T07:43:05;4.97;;;2.80;;
23634;SDS011;11994;51.038;16.974;2023-01-01T07:45:32;4.55;;;2.40;;
23634;SDS011;11994;51.038;16.974;2023-01-01T07:47:58;3.60;;;2.40;;
23634;SDS011;11994;51.038;16.974;2023-01-01T07:50:25;5.58;;;2.70;;
23634;SDS011;11994;51.038;16.974;2023-01-01T07:52:54;4.42;;;2.60;;
23634;SDS011;11994;51.038;16.974;2023-01-01T07:55:21;3.30;;;2.00;;
23634;SDS011;11994;51.038;16.974;2023-01-01T07:57:47;3.62;;;2.40;;
23634;SDS011;11994;51.038;16.974;2023-01-01T08:00:15;4.72;;;2.37;;
23634;SDS011;11994;51.038;16.974;2023-01-01T08:02:44;5.20;;;2.60;;
23634;SDS011;11994;51.038;16.974;2023-01-01T08:05:10;3.85;;;2.20;;
23634;SDS011;11994;51.038;16.974;2023-01-01T08:07:36;4.55;;;2.70;;
23634;SDS011;11994;51.038;16.974;2023-01-01T08:10:03;4.35;;;2.60;;
23634;SDS011;11994;51.038;16.974;2023-01-01T08:12:31;4.75;;;2.77;;
23634;SDS011;11994;51.038;16.974;2023-01-01T08:14:58;7.55;;;3.27;;
23634;SDS011;11994;51.038;16.974;2023-01-01T08:17:23;6.25;;;3.45;;
23634;SDS011;11994;51.038;16.974;2023-01-01T08:19:49;6.03;;;3.95;;
23634;SDS011;11994;51.038;16.974;2023-01-01T08:22:16;8.18;;;4.37;;
23634;SDS011;11994;51.038;16.974;2023-01-01T08:24:42;7.17;;;4.33;;
23634;SDS011;11994;51.038;16.974;2023-01-01T08:27:16;10.63;;;4.15;;
23634;SDS011;11994;51.038;16.974;2023-01-01T08:29:40;7.60;;;3.40;;
23634;SDS011;11994;51.038;16.974;2023-01-01T08:32:07;5.25;;;3.10;;
23634;SDS011;11994;51.038;16.974;2023-01-01T08:34:33;5.92;;;3.00;;
23634;SDS011;11994;51.038;16.974;2023-01-01T08:36:59;6.22;;;2.80;;
23634;SDS011;11994;51.038;16.974;2023-01-01T08:39:25;6.30;;;3.00;;
23634;SDS011;11994;51.038;16.974;2023-01-01T08:41:51;5.03;;;2.87;;
23634;SDS011;11994;51.038;16.974;2023-01-01T08:44:17;5.65;;;2.80;;
23634;SDS011;11994;51.038;16.974;2023-01-01T08:46:43;6.10;;;2.70;;
23634;SDS011;11994;51.038;16.974;2023-01-01T08:49:09;5.97;;;2.70;;
23634;SDS011;11994;51.038;16.974;2023-01-01T08:51:35;3.58;;;2.27;;
23634;SDS011;11994;51.038;16.974;2023-01-01T08:54:01;5.58;;;2.62;;
23634;SDS011;11994;51.038;16.974;2023-01-01T08:56:28;5.70;;;2.52;;
23634;SDS011;11994;51.038;16.974;2023-01-01T08:58:54;6.10;;;2.52;;
23634;SDS011;11994;51.038;16.974;2023-01-01T09:01:20;6.72;;;2.70;;
23634;SDS011;11994;51.038;16.974;2023-01-01T09:03:46;5.65;;;2.60;;
23634;SDS011;11994;51.038;16.974;2023-01-01T09:06:13;7.92;;;3.30;;
23634;SDS011;11994;51.038;16.974;2023-01-01T09:08:39;4.80;;;2.80;;
23634;SDS011;11994;51.038;16.974;2023-01-01T09:11:05;5.22;;;3.00;;
23634;SDS011;11994;51.038;16.974;2023-01-01T09:13:31;4.50;;;2.67;;
23634;SDS011;11994;51.038;16.974;2023-01-01T09:15:58;5.33;;;3.02;;
23634;SDS011;11994;51.038;16.974;2023-01-01T09:18:24;5.53;;;2.87;;
23634;SDS011;11994;51.038;16.974;2023-01-01T09:20:50;8.20;;;3.22;;
23634;SDS011;11994;51.038;16.974;2023-01-01T09:23:16;5.87;;;2.70;;
23634;SDS011;11994;51.038;16.974;2023-01-01T09:25:42;7.35;;;3.25;;
23634;SDS011;11994;51.038;16.974;2023-01-01T09:28:09;4.47;;;2.87;;
23634;SDS011;11994;51.038;16.974;2023-01-01T09:30:37;5.35;;;2.70;;
23634;SDS011;11994;51.038;16.974;2023-01-01T09:33:03;4.62;;;2.77;;
23634;SDS011;11994;51.038;16.974;2023-01-01T09:35:29;5.33;;;2.87;;
23634;SDS011;11994;51.038;16.974;2023-01-01T09:37:56;5.10;;;2.80;;
23634;SDS011;11994;51.038;16.974;2023-01-01T09:40:34;6.17;;;2.87;;
23634;SDS011;11994;51.038;16.974;2023-01-01T09:46:06;5.78;;;2.33;;
23634;SDS011;11994;51.038;16.974;2023-01-01T09:48:36;3.83;;;2.30;;
23634;SDS011;11994;51.038;16.974;2023-01-01T09:51:08;3.67;;;2.27;;
23634;SDS011;11994;51.038;16.974;2023-01-01T09:53:46;3.83;;;2.10;;
23634;SDS011;11994;51.038;16.974;2023-01-01T09:56:19;4.03;;;2.40;;
23634;SDS011;11994;51.038;16.974;2023-01-01T09:58:51;4.00;;;2.40;;
23634;SDS011;11994;51.038;16.974;2023-01-01T10:01:34;4.42;;;2.65;;
23634;SDS011;11994;51.038;16.974;2023-01-01T10:04:58;4.42;;;2.55;;
23634;SDS011;11994;51.038;16.974;2023-01-01T10:10:23;5.62;;;2.30;;
23634;SDS011;11994;51.038;16.974;2023-01-01T10:15:53;4.22;;;2.85;;
23634;SDS011;11994;51.038;16.974;2023-01-01T10:18:29;6.62;;;4.05;;
23634;SDS011;11994;51.038;16.974;2023-01-01T10:21:14;5.17;;;3.00;;
23634;SDS011;11994;51.038;16.974;2023-01-01T10:23:53;6.45;;;2.87;;
23634;SDS011;11994;51.038;16.974;2023-01-01T10:26:25;5.40;;;3.00;;
23634;SDS011;11994;51.038;16.974;2023-01-01T10:31:34;5.42;;;3.30;;
23634;SDS011;11994;51.038;16.974;2023-01-01T10:34:19;7.00;;;3.10;;
23634;SDS011;11994;51.038;16.974;2023-01-01T10:36:43;6.17;;;3.25;;
23634;SDS011;11994;51.038;16.974;2023-01-01T10:39:15;5.17;;;2.98;;
23634;SDS011;11994;51.038;16.974;2023-01-01T10:41:42;6.83;;;2.80;;
23634;SDS011;11994;51.038;16.974;2023-01-01T10:44:09;6.17;;;3.50;;
23634;SDS011;11994;51.038;16.974;2023-01-01T10:46:39;8.75;;;3.15;;
23634;SDS011;11994;51.038;16.974;2023-01-01T10:49:09;14.73;;;3.87;;
23634;SDS011;11994;51.038;16.974;2023-01-01T10:51:41;5.80;;;3.98;;
23634;SDS011;11994;51.038;16.974;2023-01-01T10:54:21;4.83;;;3.27;;
23634;SDS011;11994;51.038;16.974;2023-01-01T10:57:17;5.75;;;3.25;;
23634;SDS011;11994;51.038;16.974;2023-01-01T10:59:46;4.53;;;3.10;;
23634;SDS011;11994;51.038;16.974;2023-01-01T11:04:49;6.28;;;3.37;;
23634;SDS011;11994;51.038;16.974;2023-01-01T11:09:59;5.90;;;3.10;;
23634;SDS011;11994;51.038;16.974;2023-01-01T11:12:29;4.80;;;3.40;;
23634;SDS011;11994;51.038;16.974;2023-01-01T11:15:01;5.05;;;3.52;;
23634;SDS011;11994;51.038;16.974;2023-01-01T11:17:30;5.37;;;3.80;;
23634;SDS011;11994;51.038;16.974;2023-01-01T11:20:00;5.67;;;3.37;;
23634;SDS011;11994;51.038;16.974;2023-01-01T11:25:22;8.13;;;3.87;;
23634;SDS011;11994;51.038;16.974;2023-01-01T11:31:18;6.42;;;3.87;;
23634;SDS011;11994;51.038;16.974;2023-01-01T11:33:29;5.80;;;3.75;;
23634;SDS011;11994;51.038;16.974;2023-01-01T11:35:59;4.85;;;3.50;;
23634;SDS011;11994;51.038;16.974;2023-01-01T11:38:27;6.72;;;3.85;;
23634;SDS011;11994;51.038;16.974;2023-01-01T11:40:54;6.25;;;3.72;;
23634;SDS011;11994;51.038;16.974;2023-01-01T11:43:35;7.25;;;4.42;;
23634;SDS011;11994;51.038;16.974;2023-01-01T11:46:10;8.15;;;3.92;;
23634;SDS011;11994;51.038;16.974;2023-01-01T11:48:35;5.70;;;3.75;;
23634;SDS011;11994;51.038;16.974;2023-01-01T11:51:05;5.87;;;4.25;;
23634;SDS011;11994;51.038;16.974;2023-01-01T11:53:41;5.33;;;3.60;;
23634;SDS011;11994;51.038;16.974;2023-01-01T11:56:21;5.42;;;3.58;;
23634;SDS011;11994;51.038;16.974;2023-01-01T12:06:56;5.72;;;3.90;;
23634;SDS011;11994;51.038;16.974;2023-01-01T12:17:50;5.80;;;3.90;;
23634;SDS011;11994;51.038;16.974;2023-01-01T12:20:39;6.35;;;3.77;;
23634;SDS011;11994;51.038;16.974;2023-01-01T12:23:09;6.33;;;3.67;;
23634;SDS011;11994;51.038;16.974;2023-01-01T12:25:40;6.70;;;3.67;;
23634;SDS011;11994;51.038;16.974;2023-01-01T12:31:23;7.12;;;4.00;;
23634;SDS011;11994;51.038;16.974;2023-01-01T12:34:29;5.72;;;3.92;;
23634;SDS011;11994;51.038;16.974;2023-01-01T12:43:01;7.53;;;4.20;;
23634;SDS011;11994;51.038;16.974;2023-01-01T12:45:52;9.68;;;4.45;;
23634;SDS011;11994;51.038;16.974;2023-01-01T12:54:13;12.63;;;4.60;;
23634;SDS011;11994;51.038;16.974;2023-01-01T12:57:04;8.85;;;4.05;;
23634;SDS011;11994;51.038;16.974;2023-01-01T12:59:54;6.95;;;3.95;;
23634;SDS011;11994;51.038;16.974;2023-01-01T13:02:23;9.88;;;4.50;;
23634;SDS011;11994;51.038;16.974;2023-01-01T13:04:53;8.80;;;5.10;;
23634;SDS011;11994;51.038;16.974;2023-01-01T13:07:31;9.55;;;5.28;;
23634;SDS011;11994;51.038;16.974;2023-01-01T13:10:15;9.63;;;5.55;;
23634;SDS011;11994;51.038;16.974;2023-01-01T13:12:43;11.40;;;5.70;;
23634;SDS011;11994;51.038;16.974;2023-01-01T13:48:23;23.42;;;13.03;;
23634;SDS011;11994;51.038;16.974;2023-01-01T13:57:35;12.43;;;7.75;;
23634;SDS011;11994;51.038;16.974;2023-01-01T14:03:05;13.48;;;5.83;;
23634;SDS011;11994;51.038;16.974;2023-01-01T14:05:41;9.88;;;4.60;;
23634;SDS011;11994;51.038;16.974;2023-01-01T14:08:26;12.03;;;5.05;;
23634;SDS011;11994;51.038;16.974;2023-01-01T14:10:55;9.08;;;5.05;;
23634;SDS011;11994;51.038;16.974;2023-01-01T14:13:24;7.55;;;4.12;;
23634;SDS011;11994;51.038;16.974;2023-01-01T14:18:32;10.15;;;4.35;;
23634;SDS011;11994;51.038;16.974;2023-01-01T14:21:02;8.75;;;4.28;;
23634;SDS011;11994;51.038;16.974;2023-01-01T14:23:37;8.50;;;4.42;;
23634;SDS011;11994;51.038;16.974;2023-01-01T14:26:09;9.17;;;4.10;;
23634;SDS011;11994;51.038;16.974;2023-01-01T14:28:38;11.43;;;4.35;;
23634;SDS011;11994;51.038;16.974;2023-01-01T14:31:08;7.28;;;4.15;;
23634;SDS011;11994;51.038;16.974;2023-01-01T14:33:41;7.97;;;4.47;;
23634;SDS011;11994;51.038;16.974;2023-01-01T14:36:19;12.20;;;5.03;;
23634;SDS011;11994;51.038;16.974;2023-01-01T14:38:48;7.72;;;4.17;;
23634;SDS011;11994;51.038;16.974;2023-01-01T14:41:26;9.23;;;4.15;;
23634;SDS011;11994;51.038;16.974;2023-01-01T14:44:02;8.58;;;4.65;;
23634;SDS011;11994;51.038;16.974;2023-01-01T14:46:41;10.03;;;5.05;;
23634;SDS011;11994;51.038;16.974;2023-01-01T14:49:14;9.73;;;5.10;;
23634;SDS011;11994;51.038;16.974;2023-01-01T14:51:45;11.93;;;5.70;;
23634;SDS011;11994;51.038;16.974;2023-01-01T14:54:18;11.65;;;5.40;;
23634;SDS011;11994;51.038;16.974;2023-01-01T14:56:47;10.45;;;6.00;;
23634;SDS011;11994;51.038;16.974;2023-01-01T14:59:32;12.10;;;6.22;;
23634;SDS011;11994;51.038;16.974;2023-01-01T15:04:28;10.05;;;6.37;;
23634;SDS011;11994;51.038;16.974;2023-01-01T15:06:55;11.03;;;7.08;;
23634;SDS011;11994;51.038;16.974;2023-01-01T15:09:29;10.98;;;6.87;;
23634;SDS011;11994;51.038;16.974;2023-01-01T15:11:54;14.10;;;9.05;;
23634;SDS011;11994;51.038;16.974;2023-01-01T15:17:05;14.30;;;7.40;;
23634;SDS011;11994;51.038;16.974;2023-01-01T15:19:33;12.93;;;8.03;;
23634;SDS011;11994;51.038;16.974;2023-01-01T15:22:06;10.72;;;7.78;;
23634;SDS011;11994;51.038;16.974;2023-01-01T15:24:51;14.87;;;9.33;;
23634;SDS011;11994;51.038;16.974;2023-01-01T15:27:26;20.85;;;13.85;;
23634;SDS011;11994;51.038;16.974;2023-01-01T15:29:53;23.65;;;17.00;;
23634;SDS011;11994;51.038;16.974;2023-01-01T15:32:25;14.60;;;10.45;;
23634;SDS011;11994;51.038;16.974;2023-01-01T15:37:44;15.05;;;9.30;;
23634;SDS011;11994;51.038;16.974;2023-01-01T15:45:33;12.70;;;9.58;;
23634;SDS011;11994;51.038;16.974;2023-01-01T15:50:56;9.78;;;5.72;;
23634;SDS011;11994;51.038;16.974;2023-01-01T15:55:57;11.45;;;5.45;;
23634;SDS011;11994;51.038;16.974;2023-01-01T15:58:30;11.40;;;5.90;;
23634;SDS011;11994;51.038;16.974;2023-01-01T16:01:01;13.90;;;5.83;;
23634;SDS011;11994;51.038;16.974;2023-01-01T16:03:31;12.10;;;5.70;;
23634;SDS011;11994;51.038;16.974;2023-01-01T16:05:59;10.20;;;5.78;;
23634;SDS011;11994;51.038;16.974;2023-01-01T16:08:25;9.90;;;5.28;;
23634;SDS011;11994;51.038;16.974;2023-01-01T16:10:51;14.50;;;6.40;;
23634;SDS011;11994;51.038;16.974;2023-01-01T16:13:17;9.18;;;5.35;;
23634;SDS011;11994;51.038;16.974;2023-01-01T16:16:21;12.95;;;5.22;;
23634;SDS011;11994;51.038;16.974;2023-01-01T16:18:37;10.58;;;5.58;;
23634;SDS011;11994;51.038;16.974;2023-01-01T16:20:59;10.88;;;6.30;;
23634;SDS011;11994;51.038;16.974;2023-01-01T16:23:27;12.93;;;7.78;;
23634;SDS011;11994;51.038;16.974;2023-01-01T16:25:53;13.50;;;7.37;;
23634;SDS011;11994;51.038;16.974;2023-01-01T16:28:19;21.12;;;10.28;;
23634;SDS011;11994;51.038;16.974;2023-01-01T16:30:45;21.62;;;10.80;;
23634;SDS011;11994;51.038;16.974;2023-01-01T16:33:17;24.98;;;12.43;;
23634;SDS011;11994;51.038;16.974;2023-01-01T16:35:48;27.37;;;14.07;;
23634;SDS011;11994;51.038;16.974;2023-01-01T16:38:14;24.27;;;13.48;;
23634;SDS011;11994;51.038;16.974;2023-01-01T16:40:40;24.20;;;13.18;;
23634;SDS011;11994;51.038;16.974;2023-01-01T16:43:08;20.45;;;12.65;;
23634;SDS011;11994;51.038;16.974;2023-01-01T16:45:37;23.00;;;13.58;;
23634;SDS011;11994;51.038;16.974;2023-01-01T16:48:03;20.90;;;12.98;;
23634;SDS011;11994;51.038;16.974;2023-01-01T16:50:29;17.62;;;10.55;;
23634;SDS011;11994;51.038;16.974;2023-01-01T16:52:55;18.23;;;10.80;;
23634;SDS011;11994;51.038;16.974;2023-01-01T16:55:21;16.10;;;9.68;;
23634;SDS011;11994;51.038;16.974;2023-01-01T16:57:47;19.07;;;10.30;;
23634;SDS011;11994;51.038;16.974;2023-01-01T17:00:13;16.67;;;10.30;;
23634;SDS011;11994;51.038;16.974;2023-01-01T17:02:39;18.12;;;10.55;;
23634;SDS011;11994;51.038;16.974;2023-01-01T17:05:06;14.60;;;9.33;;
23634;SDS011;11994;51.038;16.974;2023-01-01T17:07:34;13.50;;;8.83;;
23634;SDS011;11994;51.038;16.974;2023-01-01T17:09:59;16.02;;;8.50;;
23634;SDS011;11994;51.038;16.974;2023-01-01T17:12:25;15.48;;;9.58;;
23634;SDS011;11994;51.038;16.974;2023-01-01T17:14:51;16.65;;;9.00;;
23634;SDS011;11994;51.038;16.974;2023-01-01T17:17:17;14.28;;;8.90;;
23634;SDS011;11994;51.038;16.974;2023-01-01T17:19:43;17.60;;;9.08;;
23634;SDS011;11994;51.038;16.974;2023-01-01T17:22:08;17.17;;;9.98;;
23634;SDS011;11994;51.038;16.974;2023-01-01T17:24:34;20.15;;;9.75;;
23634;SDS011;11994;51.038;16.974;2023-01-01T17:27:00;13.85;;;8.55;;
23634;SDS011;11994;51.038;16.974;2023-01-01T17:29:26;15.40;;;8.45;;
23634;SDS011;11994;51.038;16.974;2023-01-01T17:31:52;12.55;;;8.55;;